createdAt,value
2022-08-26T00:01:51.705Z,20.79
2022-08-26T00:04:18.431Z,20.82
2022-08-26T00:06:46.098Z,20.79
2022-08-26T00:09:16.153Z,20.76
2022-08-26T00:11:44.409Z,20.71
2022-08-26T00:14:11.506Z,20.71
2022-08-26T00:16:40.908Z,20.65
2022-08-26T00:19:07.865Z,20.65
2022-08-26T00:21:34.853Z,20.59
2022-08-26T00:24:04.521Z,20.55
2022-08-26T00:26:33.825Z,20.47
2022-08-26T00:29:00.493Z,20.41
2022-08-26T00:31:27.197Z,20.40
2022-08-26T00:33:53.861Z,20.39
2022-08-26T00:36:20.667Z,20.34
2022-08-26T00:38:48.180Z,20.27
2022-08-26T00:41:15.147Z,20.18
2022-08-26T00:43:47.155Z,20.24
2022-08-26T00:46:19.545Z,20.18
2022-08-26T00:48:49.429Z,20.10
2022-08-26T00:51:20.579Z,20.08
2022-08-26T00:54:13.636Z,20.09
2022-08-26T00:56:56.247Z,20.11
2022-08-26T00:59:25.046Z,20.10
2022-08-26T01:01:52.888Z,20.04
2022-08-26T01:04:22.764Z,20.04
2022-08-26T01:06:53.363Z,19.88
2022-08-26T01:09:22.293Z,19.91
2022-08-26T01:11:51.006Z,19.86
2022-08-26T01:14:20.217Z,19.80
2022-08-26T01:16:48.201Z,19.80
2022-08-26T01:19:51.264Z,19.85
2022-08-26T01:23:03.256Z,19.79
2022-08-26T01:25:33.467Z,19.80
2022-08-26T01:28:05.918Z,19.78
2022-08-26T01:30:34.887Z,19.69
2022-08-26T01:33:05.076Z,19.65
2022-08-26T01:35:31.951Z,19.63
2022-08-26T01:37:58.951Z,19.65
2022-08-26T01:40:30.017Z,19.68
2022-08-26T01:42:56.817Z,19.58
2022-08-26T01:45:27.579Z,19.55
2022-08-26T01:47:57.369Z,19.56
2022-08-26T01:50:35.374Z,19.41
2022-08-26T01:53:10.726Z,19.35
2022-08-26T01:55:41.769Z,19.27
2022-08-26T01:58:17.686Z,19.23
2022-08-26T02:00:45.810Z,19.19
2022-08-26T02:03:18.817Z,19.26
2022-08-26T02:05:46.589Z,19.27
2022-08-26T02:08:22.734Z,19.21
2022-08-26T02:10:51.685Z,19.19
2022-08-26T02:13:23.257Z,19.17
2022-08-26T02:15:52.271Z,19.16
2022-08-26T02:18:20.149Z,19.14
2022-08-26T02:20:47.116Z,19.17
2022-08-26T02:23:18.184Z,19.21
2022-08-26T02:26:02.621Z,19.16
2022-08-26T02:28:36.043Z,19.12
2022-08-26T02:31:02.924Z,19.10
2022-08-26T02:33:31.795Z,19.11
2022-08-26T02:35:58.701Z,19.12
2022-08-26T02:38:25.776Z,19.09
2022-08-26T02:40:52.881Z,19.05
2022-08-26T02:43:19.456Z,18.93
2022-08-26T02:46:00.810Z,18.88
2022-08-26T02:48:28.716Z,18.77
2022-08-26T02:50:55.415Z,18.84
2022-08-26T02:53:25.239Z,18.82
2022-08-26T02:55:52.307Z,18.82
2022-08-26T02:58:19.004Z,18.80
2022-08-26T03:00:52.822Z,18.73
2022-08-26T03:03:22.541Z,18.70
2022-08-26T03:05:50.498Z,18.71
2022-08-26T03:08:17.182Z,18.71
2022-08-26T03:10:44.238Z,18.70
2022-08-26T03:13:10.919Z,18.73
2022-08-26T03:15:37.550Z,18.69
2022-08-26T03:18:04.977Z,18.66
2022-08-26T03:20:32.159Z,18.70
2022-08-26T03:22:58.754Z,18.74
2022-08-26T03:25:26.095Z,18.64
2022-08-26T03:27:53.848Z,18.53
2022-08-26T03:30:45.001Z,18.43
2022-08-26T03:33:13.673Z,18.38
2022-08-26T03:35:43.765Z,18.34
2022-08-26T03:38:10.921Z,18.29
2022-08-26T03:40:38.981Z,18.28
2022-08-26T03:43:09.698Z,18.33
2022-08-26T03:45:37.178Z,18.35
2022-08-26T03:48:04.322Z,18.32
2022-08-26T03:50:34.202Z,18.35
2022-08-26T03:53:01.593Z,18.36
2022-08-26T03:55:32.186Z,18.33
2022-08-26T03:57:59.946Z,18.32
2022-08-26T04:00:27.040Z,18.37
2022-08-26T04:02:54.001Z,18.44
2022-08-26T04:05:22.834Z,18.47
2022-08-26T04:07:50.419Z,18.53
2022-08-26T04:10:19.404Z,18.46
2022-08-26T04:12:47.168Z,18.49
2022-08-26T04:15:16.460Z,18.53
2022-08-26T04:17:44.794Z,18.56
2022-08-26T04:20:18.264Z,18.50
2022-08-26T04:22:46.153Z,18.49
2022-08-26T04:25:13.128Z,18.46
2022-08-26T04:27:40.313Z,18.41
2022-08-26T04:30:09.054Z,18.41
2022-08-26T04:32:36.659Z,18.46
2022-08-26T04:35:04.636Z,18.57
2022-08-26T04:37:31.664Z,18.62
2022-08-26T04:39:59.373Z,18.56
2022-08-26T04:42:26.347Z,18.53
2022-08-26T04:44:53.091Z,18.54
2022-08-26T04:47:19.616Z,18.54
2022-08-26T04:49:46.246Z,18.58
2022-08-26T04:52:12.955Z,18.66
2022-08-26T04:54:39.604Z,18.68
2022-08-26T04:57:08.695Z,18.69
2022-08-26T04:59:39.081Z,18.74
2022-08-26T05:02:07.256Z,18.80
2022-08-26T05:04:34.192Z,18.84
2022-08-26T05:07:03.006Z,18.88
2022-08-26T05:09:29.899Z,19.01
2022-08-26T05:11:57.449Z,19.10
2022-08-26T05:14:24.256Z,19.18
2022-08-26T05:16:51.331Z,19.26
2022-08-26T05:19:18.951Z,19.29
2022-08-26T05:21:46.079Z,19.39
2022-08-26T05:24:14.108Z,19.42
2022-08-26T05:26:40.931Z,19.60
2022-08-26T05:29:08.193Z,19.73
2022-08-26T05:31:35.615Z,19.83
2022-08-26T05:34:04.668Z,19.95
2022-08-26T05:36:34.949Z,20.13
2022-08-26T05:39:04.303Z,20.31
2022-08-26T05:41:36.469Z,20.55
2022-08-26T05:44:07.641Z,20.65
2022-08-26T05:46:36.884Z,20.82
2022-08-26T05:49:04.966Z,21.05
2022-08-26T05:51:32.935Z,21.22
2022-08-26T05:54:02.127Z,21.42
2022-08-26T05:56:30.601Z,21.58
2022-08-26T05:58:58.339Z,21.68
2022-08-26T06:01:27.254Z,21.79
2022-08-26T06:03:57.695Z,21.89
2022-08-26T06:06:32.205Z,21.89
2022-08-26T06:09:00.305Z,21.91
2022-08-26T06:11:29.564Z,21.99
2022-08-26T06:14:03.580Z,22.09
2022-08-26T06:16:32.802Z,22.15
2022-08-26T06:19:02.881Z,22.18
2022-08-26T06:21:35.427Z,22.03
2022-08-26T06:24:27.080Z,21.98
2022-08-26T06:26:57.464Z,21.91
2022-08-26T06:29:25.927Z,21.91
2022-08-26T06:31:54.902Z,22.01
2022-08-26T06:34:29.787Z,22.03
2022-08-26T06:37:01.195Z,22.21
2022-08-26T06:39:30.591Z,22.38
2022-08-26T06:41:57.693Z,22.46
2022-08-26T06:44:24.260Z,22.73
2022-08-26T06:46:51.469Z,23.23
2022-08-26T06:49:27.546Z,23.73
2022-08-26T06:52:01.167Z,24.06
2022-08-26T06:54:31.812Z,23.98
2022-08-26T06:56:58.864Z,23.61
2022-08-26T06:59:26.439Z,23.75
2022-08-26T07:01:53.653Z,23.77
2022-08-26T07:04:23.279Z,23.83
2022-08-26T07:06:52.859Z,23.68
2022-08-26T07:09:22.095Z,23.82
2022-08-26T07:11:49.667Z,23.84
2022-08-26T07:14:19.422Z,23.89
2022-08-26T07:16:49.704Z,23.95
2022-08-26T07:19:17.650Z,23.97
2022-08-26T07:21:55.675Z,24.04
2022-08-26T07:24:22.427Z,24.16
2022-08-26T07:26:50.037Z,24.31
2022-08-26T07:29:18.461Z,24.50
2022-08-26T07:31:46.050Z,24.67
2022-08-26T07:34:14.111Z,24.74
2022-08-26T07:36:40.705Z,24.54
2022-08-26T07:39:07.957Z,24.67
2022-08-26T07:41:34.827Z,24.68
2022-08-26T07:44:01.386Z,24.64
2022-08-26T07:46:30.192Z,24.68
2022-08-26T07:48:58.070Z,24.70
2022-08-26T07:51:25.371Z,24.70
2022-08-26T07:53:53.042Z,24.92
2022-08-26T07:56:21.364Z,25.10
2022-08-26T07:58:51.749Z,25.19
2022-08-26T08:01:24.067Z,25.30
2022-08-26T08:03:53.453Z,25.34
2022-08-26T08:06:22.584Z,24.99
2022-08-26T08:08:54.650Z,25.10
2022-08-26T08:11:21.563Z,25.19
2022-08-26T08:13:49.838Z,25.25
2022-08-26T08:16:24.398Z,25.37
2022-08-26T08:18:51.283Z,25.39
2022-08-26T08:21:21.963Z,25.55
2022-08-26T08:23:51.973Z,25.82
2022-08-26T08:26:18.879Z,26.21
2022-08-26T08:28:47.771Z,26.60
2022-08-26T08:34:22.091Z,26.96
2022-08-26T08:36:49.630Z,27.45
2022-08-26T08:39:17.579Z,28.32
2022-08-26T08:41:53.010Z,28.42
2022-08-26T08:46:54.383Z,28.99
2022-08-26T08:49:21.972Z,29.67
2022-08-26T08:51:54.536Z,30.09
2022-08-26T08:54:23.330Z,30.41
2022-08-26T08:56:53.591Z,30.59
2022-08-26T08:59:22.059Z,31.07
2022-08-26T09:01:52.288Z,31.40
2022-08-26T09:04:23.049Z,31.82
2022-08-26T09:06:54.627Z,31.60
2022-08-26T09:09:33.129Z,31.40
2022-08-26T09:12:01.789Z,31.66
2022-08-26T09:14:28.979Z,31.48
2022-08-26T09:17:20.360Z,31.48
2022-08-26T09:20:01.174Z,31.71
2022-08-26T09:22:37.249Z,32.24
2022-08-26T09:25:08.279Z,32.58
2022-08-26T09:27:41.694Z,32.21
2022-08-26T09:30:12.073Z,32.31
2022-08-26T09:32:39.375Z,32.30
2022-08-26T09:35:10.943Z,32.30
2022-08-26T09:40:13.481Z,33.18
2022-08-26T09:42:40.127Z,33.45
2022-08-26T09:45:10.647Z,33.70
2022-08-26T09:47:41.518Z,33.42
2022-08-26T09:50:29.185Z,33.03
2022-08-26T09:53:17.893Z,33.00
2022-08-26T09:55:51.218Z,33.41
2022-08-26T09:58:37.941Z,33.69
2022-08-26T10:01:23.323Z,33.87
2022-08-26T10:03:51.547Z,33.74
2022-08-26T10:06:18.234Z,33.98
2022-08-26T10:09:02.730Z,34.26
2022-08-26T10:11:42.918Z,34.53
2022-08-26T10:14:31.010Z,34.81
2022-08-26T10:17:09.252Z,35.12
2022-08-26T10:19:57.019Z,34.31
2022-08-26T10:22:55.369Z,35.08
2022-08-26T10:25:28.559Z,35.47
2022-08-26T10:28:12.673Z,35.85
2022-08-26T10:30:59.788Z,34.40
2022-08-26T10:33:26.343Z,34.27
2022-08-26T10:35:56.765Z,34.73
2022-08-26T10:38:32.245Z,34.93
2022-08-26T10:41:09.906Z,34.76
2022-08-26T10:43:40.999Z,35.34
2022-08-26T10:46:16.515Z,35.39
2022-08-26T10:48:53.992Z,35.19
2022-08-26T10:51:27.039Z,33.77
2022-08-26T10:53:59.234Z,34.26
2022-08-26T10:56:46.812Z,34.18
2022-08-26T10:59:37.872Z,34.97
2022-08-26T11:02:12.806Z,35.12
2022-08-26T11:04:46.951Z,34.93
2022-08-26T11:07:35.170Z,35.26
2022-08-26T11:10:16.917Z,35.21
2022-08-26T11:12:45.478Z,33.77
2022-08-26T11:15:39.189Z,33.05
2022-08-26T11:18:09.488Z,32.41
2022-08-26T11:20:48.147Z,32.41
2022-08-26T11:23:22.525Z,32.01
2022-08-26T11:25:59.078Z,32.03
2022-08-26T11:28:35.674Z,33.26
2022-08-26T11:31:04.582Z,33.57
2022-08-26T11:33:51.463Z,33.85
2022-08-26T11:36:40.025Z,34.45
2022-08-26T11:39:28.974Z,34.08
2022-08-26T11:42:00.637Z,34.41
2022-08-26T11:44:41.383Z,33.80
2022-08-26T11:47:26.794Z,33.09
2022-08-26T11:50:17.092Z,32.79
2022-08-26T11:52:54.937Z,32.75
2022-08-26T11:55:23.214Z,32.66
2022-08-26T11:57:54.886Z,32.42
2022-08-26T12:00:36.049Z,32.63
2022-08-26T12:03:07.828Z,32.13
2022-08-26T12:05:45.008Z,31.97
2022-08-26T12:08:18.819Z,31.95
2022-08-26T12:10:45.760Z,32.16
2022-08-26T12:13:22.815Z,32.49
2022-08-26T12:15:56.005Z,32.15
2022-08-26T12:18:29.243Z,31.87
2022-08-26T12:20:59.359Z,31.71
2022-08-26T12:23:38.939Z,31.73
2022-08-26T12:26:29.207Z,31.89
2022-08-26T12:29:09.946Z,32.06
2022-08-26T12:31:48.047Z,32.01
2022-08-26T12:34:17.902Z,32.18
2022-08-26T12:36:50.341Z,32.39
2022-08-26T12:39:41.749Z,32.32
2022-08-26T12:42:17.031Z,32.40
2022-08-26T12:45:00.033Z,32.29
2022-08-26T12:47:43.993Z,32.41
2022-08-26T12:50:21.144Z,32.56
2022-08-26T12:53:04.175Z,32.67
2022-08-26T12:55:47.827Z,32.23
2022-08-26T12:58:22.374Z,32.48
2022-08-26T13:00:50.777Z,32.49
2022-08-26T13:03:39.087Z,32.46
2022-08-26T13:06:16.477Z,32.75
2022-08-26T13:08:47.630Z,33.29
2022-08-26T13:11:25.306Z,33.71
2022-08-26T13:13:58.276Z,33.80
2022-08-26T13:16:26.507Z,33.79
2022-08-26T13:18:56.705Z,31.78
2022-08-26T13:21:29.270Z,31.85
2022-08-26T13:24:07.270Z,31.46
2022-08-26T13:26:33.902Z,30.68
2022-08-26T13:29:01.673Z,30.63
2022-08-26T13:31:31.257Z,30.91
2022-08-26T13:33:58.612Z,30.62
2022-08-26T13:36:25.177Z,30.84
2022-08-26T13:38:52.134Z,30.80
2022-08-26T13:41:19.372Z,31.24
2022-08-26T13:43:56.526Z,31.14
2022-08-26T13:46:26.401Z,31.28
2022-08-26T13:48:54.608Z,30.69
2022-08-26T13:51:22.949Z,30.39
2022-08-26T13:53:50.702Z,29.98
2022-08-26T13:56:19.137Z,29.47
2022-08-26T13:58:47.286Z,29.73
2022-08-26T14:01:14.695Z,29.73
2022-08-26T14:03:42.813Z,29.76
2022-08-26T14:06:10.187Z,29.95
2022-08-26T14:08:38.382Z,29.84
2022-08-26T14:11:05.515Z,29.73
2022-08-26T14:13:32.291Z,29.64
2022-08-26T14:16:01.594Z,29.35
2022-08-26T14:18:42.569Z,29.38
2022-08-26T14:21:13.574Z,29.06
2022-08-26T14:23:40.330Z,29.11
2022-08-26T14:26:08.417Z,29.12
2022-08-26T14:28:35.762Z,29.16
2022-08-26T14:31:02.734Z,29.09
2022-08-26T14:33:32.822Z,28.80
2022-08-26T14:36:23.338Z,28.82
2022-08-26T14:38:50.703Z,28.93
2022-08-26T14:41:18.768Z,28.97
2022-08-26T14:43:49.748Z,29.04
2022-08-26T14:46:18.390Z,28.16
2022-08-26T14:48:45.052Z,27.15
2022-08-26T14:51:11.816Z,26.83
2022-08-26T14:53:57.119Z,25.85
2022-08-26T14:56:24.412Z,25.05
2022-08-26T14:58:51.001Z,24.49
2022-08-26T15:01:17.666Z,24.34
2022-08-26T15:03:44.774Z,24.34
2022-08-26T15:06:13.174Z,24.44
2022-08-26T15:08:40.294Z,24.32
2022-08-26T15:11:06.826Z,24.22
2022-08-26T15:13:33.377Z,24.08
2022-08-26T15:16:00.011Z,23.83
2022-08-26T15:18:26.667Z,23.87
2022-08-26T15:20:53.415Z,24.02
2022-08-26T15:23:20.059Z,24.06
2022-08-26T15:25:48.416Z,24.16
2022-08-26T15:28:15.119Z,24.30
2022-08-26T15:30:41.915Z,24.32
2022-08-26T15:33:15.346Z,24.33
2022-08-26T15:35:43.148Z,24.25
2022-08-26T15:38:10.938Z,24.36
2022-08-26T15:40:37.765Z,24.40
2022-08-26T15:43:18.586Z,24.62
2022-08-26T15:45:51.973Z,24.73
2022-08-26T15:48:19.041Z,24.85
2022-08-26T15:51:00.094Z,24.95
2022-08-26T15:53:28.240Z,24.98
2022-08-26T15:55:57.274Z,24.88
2022-08-26T15:58:26.432Z,24.98
2022-08-26T16:00:55.250Z,24.94
2022-08-26T16:03:22.807Z,25.00
2022-08-26T16:05:49.690Z,24.91
2022-08-26T16:08:16.409Z,24.97
2022-08-26T16:10:50.052Z,25.04
2022-08-26T16:13:20.047Z,25.16
2022-08-26T16:15:48.273Z,25.17
2022-08-26T16:18:15.766Z,25.18
2022-08-26T16:21:12.904Z,25.27
2022-08-26T16:23:39.415Z,25.30
2022-08-26T16:26:19.033Z,25.32
2022-08-26T16:28:45.950Z,25.36
2022-08-26T16:31:13.145Z,25.45
2022-08-26T16:33:40.787Z,25.38
2022-08-26T16:36:08.616Z,25.07
2022-08-26T16:38:36.534Z,24.81
2022-08-26T16:41:03.295Z,24.71
2022-08-26T16:43:30.084Z,24.71
2022-08-26T16:45:57.535Z,24.30
2022-08-26T16:48:24.610Z,24.22
2022-08-26T16:50:51.939Z,24.22
2022-08-26T16:53:19.118Z,24.15
2022-08-26T16:55:47.609Z,24.05
2022-08-26T16:58:14.762Z,24.09
2022-08-26T17:00:41.841Z,24.03
2022-08-26T17:03:08.929Z,24.00
2022-08-26T17:05:36.417Z,23.96
2022-08-26T17:08:04.286Z,23.80
2022-08-26T17:10:31.533Z,23.76
2022-08-26T17:12:58.713Z,23.59
2022-08-26T17:15:25.908Z,23.57
2022-08-26T17:17:53.770Z,23.60
2022-08-26T17:20:23.619Z,23.42
2022-08-26T17:22:51.941Z,23.39
2022-08-26T17:25:28.782Z,23.35
2022-08-26T17:30:23.465Z,23.25
2022-08-26T17:32:51.021Z,23.34
2022-08-26T17:35:18.684Z,23.32
2022-08-26T17:37:46.467Z,23.20
2022-08-26T17:40:17.809Z,23.08
2022-08-26T17:42:45.246Z,22.79
2022-08-26T17:45:12.774Z,22.66
2022-08-26T17:47:39.927Z,22.62
2022-08-26T17:50:09.502Z,22.44
2022-08-26T17:52:37.793Z,22.38
2022-08-26T17:55:06.665Z,22.31
2022-08-26T17:57:33.385Z,22.19
2022-08-26T18:00:11.767Z,22.06
2022-08-26T18:02:39.099Z,21.95
2022-08-26T18:05:07.082Z,22.06
2022-08-26T18:07:33.700Z,22.09
2022-08-26T18:10:13.411Z,22.19
2022-08-26T18:12:41.858Z,22.30
2022-08-26T18:15:10.406Z,22.24
2022-08-26T18:17:39.307Z,22.29
2022-08-26T18:20:09.420Z,22.38
2022-08-26T18:22:35.943Z,22.40
2022-08-26T18:25:03.105Z,22.42
2022-08-26T18:27:29.702Z,22.47
2022-08-26T18:29:56.804Z,22.57
2022-08-26T18:32:23.437Z,22.52
2022-08-26T18:34:50.013Z,22.49
2022-08-26T18:37:16.882Z,22.55
2022-08-26T18:39:43.547Z,22.56
2022-08-26T18:42:10.402Z,22.56
2022-08-26T18:44:37.218Z,22.54
2022-08-26T18:47:04.494Z,22.58
2022-08-26T18:49:31.276Z,22.49
2022-08-26T18:51:57.850Z,22.46
2022-08-26T18:54:24.561Z,22.48
2022-08-26T18:56:51.865Z,22.43
2022-08-26T18:59:18.584Z,22.43
2022-08-26T19:01:45.631Z,22.31
2022-08-26T19:04:15.336Z,22.29
2022-08-26T19:06:43.396Z,22.27
2022-08-26T19:09:11.914Z,22.31
2022-08-26T19:11:42.328Z,22.35
2022-08-26T19:14:13.713Z,22.38
2022-08-26T19:16:42.753Z,22.37
2022-08-26T19:19:10.411Z,22.29
2022-08-26T19:21:38.782Z,22.33
2022-08-26T19:24:12.413Z,22.35
2022-08-26T19:26:39.248Z,22.35
2022-08-26T19:29:06.755Z,22.36
2022-08-26T19:31:33.860Z,22.31
2022-08-26T19:34:00.725Z,22.25
2022-08-26T19:36:28.762Z,22.24
2022-08-26T19:38:56.900Z,22.12
2022-08-26T19:41:36.930Z,22.20
2022-08-26T19:44:10.700Z,22.13
2022-08-26T19:49:06.189Z,22.06
2022-08-26T19:51:35.153Z,22.14
2022-08-26T19:54:02.281Z,22.10
2022-08-26T19:56:29.326Z,22.16
2022-08-26T19:58:56.673Z,22.16
2022-08-26T20:01:23.668Z,22.09
2022-08-26T20:03:50.645Z,22.12
2022-08-26T20:06:18.536Z,21.99
2022-08-26T20:08:45.389Z,21.97
2022-08-26T20:11:16.183Z,22.03
2022-08-26T20:13:43.860Z,22.08
2022-08-26T20:16:12.282Z,22.10
2022-08-26T20:18:58.972Z,22.14
2022-08-26T20:21:29.518Z,22.20
2022-08-26T20:24:03.465Z,22.27
2022-08-26T20:26:32.836Z,22.22
2022-08-26T20:28:59.737Z,22.25
2022-08-26T20:31:27.015Z,22.22
2022-08-26T20:33:54.009Z,22.22
2022-08-26T20:36:22.689Z,22.15
2022-08-26T20:38:49.829Z,22.14
2022-08-26T20:41:17.094Z,22.16
2022-08-26T20:43:44.369Z,22.21
2022-08-26T20:46:18.069Z,22.25
2022-08-26T20:48:47.038Z,22.24
2022-08-26T20:51:14.007Z,22.20
2022-08-26T20:53:41.369Z,22.09
2022-08-26T20:56:10.131Z,22.02
2022-08-26T20:58:37.937Z,21.92
2022-08-26T21:01:08.053Z,21.91
2022-08-26T21:03:36.012Z,21.92
2022-08-26T21:06:03.716Z,21.90
2022-08-26T21:08:33.406Z,21.81
2022-08-26T21:11:01.896Z,21.78
2022-08-26T21:13:39.189Z,21.69
2022-08-26T21:16:16.682Z,21.60
2022-08-26T21:18:43.589Z,21.54
2022-08-26T21:21:10.350Z,21.46
2022-08-26T21:23:37.449Z,21.47
2022-08-26T21:26:07.569Z,21.34
2022-08-26T21:28:35.940Z,21.27
2022-08-26T21:31:04.570Z,21.25
2022-08-26T21:33:31.678Z,21.18
2022-08-26T21:35:58.641Z,21.11
2022-08-26T21:38:25.393Z,21.06
2022-08-26T21:41:01.939Z,20.95
2022-08-26T21:43:35.503Z,20.86
2022-08-26T21:46:11.711Z,20.82
2022-08-26T21:48:47.614Z,20.80
2022-08-26T21:51:18.520Z,20.78
2022-08-26T21:53:45.161Z,20.80
2022-08-26T21:56:15.754Z,20.75
2022-08-26T21:58:42.780Z,20.91
2022-08-26T22:01:15.036Z,20.88
2022-08-26T22:03:47.033Z,20.88
2022-08-26T22:06:19.372Z,20.95
2022-08-26T22:08:46.115Z,21.03
2022-08-26T22:11:13.622Z,21.08
2022-08-26T22:13:42.018Z,21.12
2022-08-26T22:16:09.918Z,21.13
2022-08-26T22:18:37.846Z,21.16
2022-08-26T22:21:10.052Z,21.12
2022-08-26T22:23:38.395Z,21.09
2022-08-26T22:26:06.961Z,21.03
2022-08-26T22:28:34.007Z,20.99
2022-08-26T22:31:00.699Z,20.94
2022-08-26T22:33:27.862Z,20.96
2022-08-26T22:35:56.127Z,21.00
2022-08-26T22:38:24.019Z,21.04
2022-08-26T22:40:56.573Z,20.99
2022-08-26T22:43:28.633Z,21.02
2022-08-26T22:45:56.326Z,21.07
2022-08-26T22:48:25.036Z,21.04
2022-08-26T22:50:59.612Z,21.09
2022-08-26T22:53:26.997Z,21.13
2022-08-26T22:55:54.318Z,21.09
2022-08-26T22:58:21.453Z,21.12
2022-08-26T23:00:57.842Z,21.13
2022-08-26T23:03:26.296Z,21.11
2022-08-26T23:05:53.334Z,21.11
2022-08-26T23:08:20.134Z,21.14
2022-08-26T23:10:47.869Z,21.23
2022-08-26T23:13:15.375Z,21.20
2022-08-26T23:15:42.957Z,21.23
2022-08-26T23:18:10.821Z,21.31
2022-08-26T23:20:38.766Z,21.30
2022-08-26T23:23:05.354Z,21.29
2022-08-26T23:25:32.677Z,21.27
2022-08-26T23:28:00.551Z,21.30
2022-08-26T23:30:29.552Z,21.31
2022-08-26T23:32:56.446Z,21.30
2022-08-26T23:35:24.046Z,21.33
2022-08-26T23:37:52.547Z,21.36
2022-08-26T23:40:25.668Z,21.31
2022-08-26T23:42:57.760Z,21.29
2022-08-26T23:45:25.725Z,21.26
2022-08-26T23:47:54.138Z,21.30
2022-08-26T23:50:44.405Z,21.31
2022-08-26T23:53:11.686Z,21.32
2022-08-26T23:55:39.387Z,21.33
2022-08-26T23:58:06.562Z,21.32
